sensor_id;sensor_type;location;lat;lon;timestamp;P1;durP1;ratioP1;P2;durP2;ratioP2
62693;SDS011;48759;52.544;13.418;2024-01-30T00:01:12;9.03;;;6.57;;
62693;SDS011;48759;52.544;13.418;2024-01-30T00:03:39;10.43;;;5.80;;
62693;SDS011;48759;52.544;13.418;2024-01-30T00:06:06;11.63;;;6.37;;
62693;SDS011;48759;52.544;13.418;2024-01-30T00:08:33;11.77;;;6.77;;
62693;SDS011;48759;52.544;13.418;2024-01-30T00:11:02;15.33;;;7.13;;
62693;SDS011;48759;52.544;13.418;2024-01-30T00:13:29;10.13;;;6.70;;
62693;SDS011;48759;52.544;13.418;2024-01-30T00:15:57;10.53;;;6.10;;
62693;SDS011;48759;52.544;13.418;2024-01-30T00:18:24;10.80;;;6.30;;
62693;SDS011;48759;52.544;13.418;2024-01-30T00:20:51;12.87;;;6.77;;
62693;SDS011;48759;52.544;13.418;2024-01-30T00:23:18;10.93;;;6.10;;
62693;SDS011;48759;52.544;13.418;2024-01-30T00:25:47;10.77;;;6.60;;
62693;SDS011;48759;52.544;13.418;2024-01-30T00:28:16;7.90;;;5.40;;
62693;SDS011;48759;52.544;13.418;2024-01-30T00:30:43;12.30;;;6.70;;
62693;SDS011;48759;52.544;13.418;2024-01-30T00:33:09;7.30;;;5.80;;
62693;SDS011;48759;52.544;13.418;2024-01-30T00:35:36;11.07;;;5.97;;
62693;SDS011;48759;52.544;13.418;2024-01-30T00:38:03;9.20;;;5.93;;
62693;SDS011;48759;52.544;13.418;2024-01-30T00:40:35;10.60;;;6.60;;
62693;SDS011;48759;52.544;13.418;2024-01-30T00:43:03;10.60;;;6.47;;
62693;SDS011;48759;52.544;13.418;2024-01-30T00:45:31;8.13;;;6.07;;
62693;SDS011;48759;52.544;13.418;2024-01-30T00:47:57;17.13;;;7.33;;
62693;SDS011;48759;52.544;13.418;2024-01-30T00:50:24;9.60;;;6.50;;
62693;SDS011;48759;52.544;13.418;2024-01-30T00:52:52;14.23;;;6.50;;
62693;SDS011;48759;52.544;13.418;2024-01-30T00:55:19;15.20;;;6.70;;
62693;SDS011;48759;52.544;13.418;2024-01-30T00:57:45;13.20;;;7.57;;
62693;SDS011;48759;52.544;13.418;2024-01-30T01:00:16;10.03;;;6.30;;
62693;SDS011;48759;52.544;13.418;2024-01-30T01:02:45;9.20;;;6.20;;
62693;SDS011;48759;52.544;13.418;2024-01-30T01:05:12;11.53;;;6.37;;
62693;SDS011;48759;52.544;13.418;2024-01-30T01:07:39;11.87;;;6.87;;
62693;SDS011;48759;52.544;13.418;2024-01-30T01:10:07;8.97;;;5.63;;
62693;SDS011;48759;52.544;13.418;2024-01-30T01:12:36;10.17;;;5.90;;
62693;SDS011;48759;52.544;13.418;2024-01-30T01:15:03;10.83;;;6.87;;
62693;SDS011;48759;52.544;13.418;2024-01-30T01:17:30;9.60;;;6.60;;
62693;SDS011;48759;52.544;13.418;2024-01-30T01:19:58;9.93;;;6.03;;
62693;SDS011;48759;52.544;13.418;2024-01-30T01:22:25;11.60;;;6.70;;
62693;SDS011;48759;52.544;13.418;2024-01-30T01:24:51;13.00;;;5.97;;
62693;SDS011;48759;52.544;13.418;2024-01-30T01:27:18;8.23;;;5.67;;
62693;SDS011;48759;52.544;13.418;2024-01-30T01:29:45;12.90;;;6.30;;
62693;SDS011;48759;52.544;13.418;2024-01-30T01:32:11;10.00;;;6.90;;
62693;SDS011;48759;52.544;13.418;2024-01-30T01:34:38;10.00;;;6.33;;
62693;SDS011;48759;52.544;13.418;2024-01-30T01:37:08;12.63;;;6.30;;
62693;SDS011;48759;52.544;13.418;2024-01-30T01:39:35;16.63;;;6.97;;
62693;SDS011;48759;52.544;13.418;2024-01-30T01:42:01;9.83;;;6.53;;
62693;SDS011;48759;52.544;13.418;2024-01-30T01:44:28;13.33;;;7.63;;
62693;SDS011;48759;52.544;13.418;2024-01-30T01:46:55;13.70;;;7.20;;
62693;SDS011;48759;52.544;13.418;2024-01-30T01:49:22;10.23;;;6.50;;
62693;SDS011;48759;52.544;13.418;2024-01-30T01:51:51;11.93;;;6.40;;
62693;SDS011;48759;52.544;13.418;2024-01-30T01:54:21;12.60;;;7.10;;
62693;SDS011;48759;52.544;13.418;2024-01-30T01:56:48;12.70;;;7.43;;
62693;SDS011;48759;52.544;13.418;2024-01-30T01:59:14;12.77;;;7.43;;
62693;SDS011;48759;52.544;13.418;2024-01-30T02:01:41;11.40;;;7.40;;
62693;SDS011;48759;52.544;13.418;2024-01-30T02:04:09;8.30;;;6.00;;
62693;SDS011;48759;52.544;13.418;2024-01-30T02:06:35;9.80;;;6.60;;
62693;SDS011;48759;52.544;13.418;2024-01-30T02:09:03;8.40;;;6.20;;
62693;SDS011;48759;52.544;13.418;2024-01-30T02:11:35;15.10;;;6.93;;
62693;SDS011;48759;52.544;13.418;2024-01-30T02:14:02;11.77;;;6.63;;
62693;SDS011;48759;52.544;13.418;2024-01-30T02:16:30;14.33;;;6.90;;
62693;SDS011;48759;52.544;13.418;2024-01-30T02:18:57;9.90;;;6.30;;
62693;SDS011;48759;52.544;13.418;2024-01-30T02:21:25;10.80;;;6.27;;
62693;SDS011;48759;52.544;13.418;2024-01-30T02:23:51;11.30;;;6.27;;
62693;SDS011;48759;52.544;13.418;2024-01-30T02:26:18;12.03;;;7.37;;
62693;SDS011;48759;52.544;13.418;2024-01-30T02:28:45;10.87;;;7.10;;
62693;SDS011;48759;52.544;13.418;2024-01-30T02:31:15;10.30;;;6.60;;
62693;SDS011;48759;52.544;13.418;2024-01-30T02:33:43;11.90;;;7.50;;
62693;SDS011;48759;52.544;13.418;2024-01-30T02:36:09;10.93;;;7.33;;
62693;SDS011;48759;52.544;13.418;2024-01-30T02:38:42;10.03;;;6.37;;
62693;SDS011;48759;52.544;13.418;2024-01-30T02:41:08;8.77;;;6.70;;
62693;SDS011;48759;52.544;13.418;2024-01-30T02:43:35;8.97;;;6.30;;
62693;SDS011;48759;52.544;13.418;2024-01-30T02:46:01;13.47;;;6.60;;
62693;SDS011;48759;52.544;13.418;2024-01-30T02:48:28;12.60;;;6.67;;
62693;SDS011;48759;52.544;13.418;2024-01-30T02:50:55;10.20;;;6.33;;
62693;SDS011;48759;52.544;13.418;2024-01-30T02:53:23;8.53;;;6.60;;
62693;SDS011;48759;52.544;13.418;2024-01-30T02:55:52;10.47;;;6.80;;
62693;SDS011;48759;52.544;13.418;2024-01-30T02:58:18;10.40;;;6.33;;
62693;SDS011;48759;52.544;13.418;2024-01-30T03:00:47;13.57;;;7.17;;
62693;SDS011;48759;52.544;13.418;2024-01-30T03:03:14;7.23;;;5.83;;
62693;SDS011;48759;52.544;13.418;2024-01-30T03:05:40;11.10;;;6.80;;
62693;SDS011;48759;52.544;13.418;2024-01-30T03:08:08;14.23;;;7.20;;
62693;SDS011;48759;52.544;13.418;2024-01-30T03:10:35;11.33;;;7.57;;
62693;SDS011;48759;52.544;13.418;2024-01-30T03:13:03;13.37;;;6.80;;
62693;SDS011;48759;52.544;13.418;2024-01-30T03:15:31;11.40;;;7.37;;
62693;SDS011;48759;52.544;13.418;2024-01-30T03:18:02;8.63;;;6.63;;
62693;SDS011;48759;52.544;13.418;2024-01-30T03:20:29;11.83;;;6.87;;
62693;SDS011;48759;52.544;13.418;2024-01-30T03:22:56;8.80;;;6.93;;
62693;SDS011;48759;52.544;13.418;2024-01-30T03:25:23;13.40;;;7.63;;
62693;SDS011;48759;52.544;13.418;2024-01-30T03:27:51;12.20;;;6.50;;
62693;SDS011;48759;52.544;13.418;2024-01-30T03:30:19;11.13;;;6.43;;
62693;SDS011;48759;52.544;13.418;2024-01-30T03:32:45;9.43;;;6.20;;
62693;SDS011;48759;52.544;13.418;2024-01-30T03:35:17;10.17;;;6.20;;
62693;SDS011;48759;52.544;13.418;2024-01-30T03:37:43;8.37;;;6.47;;
62693;SDS011;48759;52.544;13.418;2024-01-30T03:40:13;9.47;;;6.50;;
62693;SDS011;48759;52.544;13.418;2024-01-30T03:42:40;10.30;;;7.33;;
62693;SDS011;48759;52.544;13.418;2024-01-30T03:45:07;13.10;;;7.30;;
62693;SDS011;48759;52.544;13.418;2024-01-30T03:47:36;10.03;;;7.17;;
62693;SDS011;48759;52.544;13.418;2024-01-30T03:50:02;9.50;;;6.33;;
62693;SDS011;48759;52.544;13.418;2024-01-30T03:52:30;8.97;;;6.97;;
62693;SDS011;48759;52.544;13.418;2024-01-30T03:54:56;9.70;;;6.77;;
62693;SDS011;48759;52.544;13.418;2024-01-30T03:57:23;10.07;;;6.50;;
62693;SDS011;48759;52.544;13.418;2024-01-30T03:59:50;11.57;;;6.63;;
62693;SDS011;48759;52.544;13.418;2024-01-30T04:02:16;9.27;;;6.40;;
62693;SDS011;48759;52.544;13.418;2024-01-30T04:04:44;9.57;;;6.60;;
62693;SDS011;48759;52.544;13.418;2024-01-30T04:07:14;9.93;;;6.53;;
62693;SDS011;48759;52.544;13.418;2024-01-30T04:09:40;10.27;;;7.03;;
62693;SDS011;48759;52.544;13.418;2024-01-30T04:12:07;10.20;;;7.00;;
62693;SDS011;48759;52.544;13.418;2024-01-30T04:14:33;9.63;;;6.93;;
62693;SDS011;48759;52.544;13.418;2024-01-30T04:17:00;12.97;;;7.13;;
62693;SDS011;48759;52.544;13.418;2024-01-30T04:19:27;15.77;;;6.83;;
62693;SDS011;48759;52.544;13.418;2024-01-30T04:21:55;9.87;;;7.53;;
62693;SDS011;48759;52.544;13.418;2024-01-30T04:24:22;9.77;;;6.50;;
62693;SDS011;48759;52.544;13.418;2024-01-30T04:26:48;8.70;;;7.07;;
62693;SDS011;48759;52.544;13.418;2024-01-30T04:29:15;10.00;;;6.50;;
62693;SDS011;48759;52.544;13.418;2024-01-30T04:31:42;15.00;;;6.30;;
62693;SDS011;48759;52.544;13.418;2024-01-30T04:34:08;9.80;;;7.40;;
62693;SDS011;48759;52.544;13.418;2024-01-30T04:36:43;11.97;;;7.00;;
62693;SDS011;48759;52.544;13.418;2024-01-30T04:39:11;9.20;;;6.03;;
62693;SDS011;48759;52.544;13.418;2024-01-30T04:41:38;12.00;;;7.60;;
62693;SDS011;48759;52.544;13.418;2024-01-30T04:44:05;9.70;;;6.57;;
62693;SDS011;48759;52.544;13.418;2024-01-30T04:46:31;11.37;;;7.40;;
62693;SDS011;48759;52.544;13.418;2024-01-30T04:48:59;8.37;;;6.23;;
62693;SDS011;48759;52.544;13.418;2024-01-30T04:51:28;13.00;;;6.40;;
62693;SDS011;48759;52.544;13.418;2024-01-30T04:53:55;11.13;;;6.40;;
62693;SDS011;48759;52.544;13.418;2024-01-30T04:56:25;11.87;;;6.07;;
62693;SDS011;48759;52.544;13.418;2024-01-30T04:58:51;15.67;;;7.30;;
62693;SDS011;48759;52.544;13.418;2024-01-30T05:01:24;14.30;;;7.27;;
62693;SDS011;48759;52.544;13.418;2024-01-30T05:03:50;11.43;;;7.17;;
62693;SDS011;48759;52.544;13.418;2024-01-30T05:06:23;11.20;;;7.00;;
62693;SDS011;48759;52.544;13.418;2024-01-30T05:08:51;9.40;;;6.90;;
62693;SDS011;48759;52.544;13.418;2024-01-30T05:11:17;10.83;;;6.73;;
62693;SDS011;48759;52.544;13.418;2024-01-30T05:13:46;10.50;;;7.40;;
62693;SDS011;48759;52.544;13.418;2024-01-30T05:16:13;8.93;;;6.50;;
62693;SDS011;48759;52.544;13.418;2024-01-30T05:18:40;10.67;;;7.47;;
62693;SDS011;48759;52.544;13.418;2024-01-30T05:21:08;12.87;;;7.57;;
62693;SDS011;48759;52.544;13.418;2024-01-30T05:23:37;10.80;;;7.80;;
62693;SDS011;48759;52.544;13.418;2024-01-30T05:26:04;7.80;;;6.57;;
62693;SDS011;48759;52.544;13.418;2024-01-30T05:28:31;12.33;;;7.20;;
62693;SDS011;48759;52.544;13.418;2024-01-30T05:31:00;12.10;;;7.37;;
62693;SDS011;48759;52.544;13.418;2024-01-30T05:33:26;9.87;;;6.67;;
62693;SDS011;48759;52.544;13.418;2024-01-30T05:35:55;16.80;;;7.93;;
62693;SDS011;48759;52.544;13.418;2024-01-30T05:38:24;10.43;;;7.13;;
62693;SDS011;48759;52.544;13.418;2024-01-30T05:40:51;14.30;;;6.87;;
62693;SDS011;48759;52.544;13.418;2024-01-30T05:43:17;8.80;;;6.70;;
62693;SDS011;48759;52.544;13.418;2024-01-30T05:45:44;11.03;;;7.20;;
62693;SDS011;48759;52.544;13.418;2024-01-30T05:48:13;11.23;;;7.10;;
62693;SDS011;48759;52.544;13.418;2024-01-30T05:50:41;12.17;;;6.90;;
62693;SDS011;48759;52.544;13.418;2024-01-30T05:53:08;10.23;;;6.40;;
62693;SDS011;48759;52.544;13.418;2024-01-30T05:55:34;12.40;;;7.00;;
62693;SDS011;48759;52.544;13.418;2024-01-30T05:58:02;13.70;;;7.40;;
62693;SDS011;48759;52.544;13.418;2024-01-30T06:00:29;9.87;;;6.83;;
62693;SDS011;48759;52.544;13.418;2024-01-30T06:02:55;13.37;;;7.37;;
62693;SDS011;48759;52.544;13.418;2024-01-30T06:05:24;9.80;;;6.13;;
62693;SDS011;48759;52.544;13.418;2024-01-30T06:07:50;12.20;;;7.30;;
62693;SDS011;48759;52.544;13.418;2024-01-30T06:10:19;8.80;;;6.30;;
62693;SDS011;48759;52.544;13.418;2024-01-30T06:12:46;12.07;;;7.30;;
62693;SDS011;48759;52.544;13.418;2024-01-30T06:15:23;11.80;;;7.00;;
62693;SDS011;48759;52.544;13.418;2024-01-30T06:18:01;8.73;;;7.40;;
62693;SDS011;48759;52.544;13.418;2024-01-30T06:20:37;8.87;;;6.50;;
62693;SDS011;48759;52.544;13.418;2024-01-30T06:23:06;11.90;;;7.00;;
62693;SDS011;48759;52.544;13.418;2024-01-30T06:25:33;11.90;;;6.60;;
62693;SDS011;48759;52.544;13.418;2024-01-30T06:28:07;9.87;;;7.10;;
62693;SDS011;48759;52.544;13.418;2024-01-30T06:30:35;13.50;;;6.77;;
62693;SDS011;48759;52.544;13.418;2024-01-30T06:33:01;13.30;;;7.20;;
62693;SDS011;48759;52.544;13.418;2024-01-30T06:35:31;11.47;;;7.47;;
62693;SDS011;48759;52.544;13.418;2024-01-30T06:38:02;12.27;;;6.80;;
62693;SDS011;48759;52.544;13.418;2024-01-30T06:40:29;17.03;;;8.27;;
62693;SDS011;48759;52.544;13.418;2024-01-30T06:42:56;10.80;;;7.20;;
62693;SDS011;48759;52.544;13.418;2024-01-30T06:45:23;11.30;;;7.40;;
62693;SDS011;48759;52.544;13.418;2024-01-30T06:47:52;9.90;;;7.37;;
62693;SDS011;48759;52.544;13.418;2024-01-30T06:50:24;14.47;;;7.97;;
62693;SDS011;48759;52.544;13.418;2024-01-30T06:52:50;16.03;;;7.27;;
62693;SDS011;48759;52.544;13.418;2024-01-30T06:55:28;12.70;;;8.00;;
62693;SDS011;48759;52.544;13.418;2024-01-30T06:57:56;11.73;;;7.80;;
62693;SDS011;48759;52.544;13.418;2024-01-30T07:00:26;13.83;;;8.00;;
62693;SDS011;48759;52.544;13.418;2024-01-30T07:02:58;10.27;;;7.50;;
62693;SDS011;48759;52.544;13.418;2024-01-30T07:05:25;14.23;;;8.53;;
62693;SDS011;48759;52.544;13.418;2024-01-30T07:07:56;13.17;;;8.57;;
62693;SDS011;48759;52.544;13.418;2024-01-30T07:10:25;11.93;;;8.87;;
62693;SDS011;48759;52.544;13.418;2024-01-30T07:12:53;9.97;;;8.23;;
62693;SDS011;48759;52.544;13.418;2024-01-30T07:15:32;13.00;;;8.40;;
62693;SDS011;48759;52.544;13.418;2024-01-30T07:17:59;12.80;;;8.27;;
62693;SDS011;48759;52.544;13.418;2024-01-30T07:20:26;17.53;;;8.83;;
62693;SDS011;48759;52.544;13.418;2024-01-30T07:22:58;13.03;;;7.23;;
62693;SDS011;48759;52.544;13.418;2024-01-30T07:25:28;16.00;;;8.50;;
62693;SDS011;48759;52.544;13.418;2024-01-30T07:27:56;14.33;;;8.20;;
62693;SDS011;48759;52.544;13.418;2024-01-30T07:30:30;17.60;;;9.30;;
62693;SDS011;48759;52.544;13.418;2024-01-30T07:32:57;19.30;;;8.80;;
62693;SDS011;48759;52.544;13.418;2024-01-30T07:35:28;12.70;;;8.77;;
62693;SDS011;48759;52.544;13.418;2024-01-30T07:37:55;24.73;;;8.87;;
62693;SDS011;48759;52.544;13.418;2024-01-30T07:40:24;11.40;;;8.00;;
62693;SDS011;48759;52.544;13.418;2024-01-30T07:42:55;13.33;;;8.33;;
62693;SDS011;48759;52.544;13.418;2024-01-30T07:45:23;16.77;;;8.20;;
62693;SDS011;48759;52.544;13.418;2024-01-30T07:47:53;11.53;;;7.73;;
62693;SDS011;48759;52.544;13.418;2024-01-30T07:50:20;12.40;;;7.77;;
62693;SDS011;48759;52.544;13.418;2024-01-30T07:52:47;17.43;;;8.20;;
62693;SDS011;48759;52.544;13.418;2024-01-30T07:55:17;18.53;;;8.27;;
62693;SDS011;48759;52.544;13.418;2024-01-30T08:03:58;14.83;;;8.47;;
62693;SDS011;48759;52.544;13.418;2024-01-30T08:06:25;14.40;;;9.03;;
62693;SDS011;48759;52.544;13.418;2024-01-30T08:08:54;13.67;;;8.33;;
62693;SDS011;48759;52.544;13.418;2024-01-30T08:11:22;14.63;;;8.50;;
62693;SDS011;48759;52.544;13.418;2024-01-30T08:13:56;14.37;;;8.63;;
62693;SDS011;48759;52.544;13.418;2024-01-30T08:16:25;16.83;;;10.27;;
62693;SDS011;48759;52.544;13.418;2024-01-30T08:18:54;17.30;;;9.87;;
62693;SDS011;48759;52.544;13.418;2024-01-30T08:21:32;15.00;;;10.00;;
62693;SDS011;48759;52.544;13.418;2024-01-30T08:24:01;17.90;;;10.50;;
62693;SDS011;48759;52.544;13.418;2024-01-30T08:26:31;17.87;;;10.40;;
62693;SDS011;48759;52.544;13.418;2024-01-30T08:28:58;15.60;;;8.90;;
62693;SDS011;48759;52.544;13.418;2024-01-30T08:31:28;15.60;;;9.33;;
62693;SDS011;48759;52.544;13.418;2024-01-30T08:34:00;14.60;;;9.50;;
62693;SDS011;48759;52.544;13.418;2024-01-30T08:36:28;14.80;;;9.77;;
62693;SDS011;48759;52.544;13.418;2024-01-30T08:39:06;14.77;;;9.23;;
62693;SDS011;48759;52.544;13.418;2024-01-30T08:41:53;15.00;;;9.20;;
62693;SDS011;48759;52.544;13.418;2024-01-30T08:44:22;12.63;;;8.80;;
62693;SDS011;48759;52.544;13.418;2024-01-30T08:46:49;14.60;;;8.40;;
62693;SDS011;48759;52.544;13.418;2024-01-30T08:49:17;19.77;;;10.03;;
62693;SDS011;48759;52.544;13.418;2024-01-30T08:51:46;19.60;;;9.90;;
62693;SDS011;48759;52.544;13.418;2024-01-30T08:57:02;16.50;;;9.27;;
62693;SDS011;48759;52.544;13.418;2024-01-30T08:59:32;15.83;;;11.07;;
62693;SDS011;48759;52.544;13.418;2024-01-30T09:02:09;23.57;;;16.23;;
62693;SDS011;48759;52.544;13.418;2024-01-30T09:04:38;17.20;;;11.87;;
62693;SDS011;48759;52.544;13.418;2024-01-30T09:07:19;15.90;;;12.00;;
62693;SDS011;48759;52.544;13.418;2024-01-30T09:09:46;16.87;;;11.00;;
62693;SDS011;48759;52.544;13.418;2024-01-30T09:12:23;19.43;;;11.10;;
62693;SDS011;48759;52.544;13.418;2024-01-30T09:14:50;12.53;;;9.73;;
62693;SDS011;48759;52.544;13.418;2024-01-30T09:17:26;21.07;;;11.87;;
62693;SDS011;48759;52.544;13.418;2024-01-30T09:20:08;15.43;;;9.80;;
62693;SDS011;48759;52.544;13.418;2024-01-30T09:22:40;14.43;;;10.27;;
62693;SDS011;48759;52.544;13.418;2024-01-30T09:25:09;19.10;;;11.03;;
62693;SDS011;48759;52.544;13.418;2024-01-30T09:30:36;21.93;;;13.80;;
62693;SDS011;48759;52.544;13.418;2024-01-30T09:33:08;18.40;;;12.00;;
62693;SDS011;48759;52.544;13.418;2024-01-30T09:35:37;18.93;;;12.53;;
62693;SDS011;48759;52.544;13.418;2024-01-30T09:38:04;17.07;;;11.10;;
62693;SDS011;48759;52.544;13.418;2024-01-30T09:40:44;23.10;;;13.93;;
62693;SDS011;48759;52.544;13.418;2024-01-30T09:43:18;17.90;;;11.43;;
62693;SDS011;48759;52.544;13.418;2024-01-30T09:45:52;30.33;;;16.63;;
62693;SDS011;48759;52.544;13.418;2024-01-30T09:48:23;32.43;;;17.40;;
62693;SDS011;48759;52.544;13.418;2024-01-30T09:51:10;38.47;;;21.30;;
62693;SDS011;48759;52.544;13.418;2024-01-30T09:53:50;19.30;;;12.33;;
62693;SDS011;48759;52.544;13.418;2024-01-30T09:59:05;25.87;;;16.07;;
62693;SDS011;48759;52.544;13.418;2024-01-30T10:01:34;29.63;;;19.50;;
62693;SDS011;48759;52.544;13.418;2024-01-30T10:04:03;21.23;;;12.90;;
62693;SDS011;48759;52.544;13.418;2024-01-30T10:06:34;24.27;;;15.87;;
62693;SDS011;48759;52.544;13.418;2024-01-30T10:09:04;24.33;;;16.73;;
62693;SDS011;48759;52.544;13.418;2024-01-30T10:11:32;34.17;;;21.07;;
62693;SDS011;48759;52.544;13.418;2024-01-30T10:14:04;29.93;;;16.20;;
62693;SDS011;48759;52.544;13.418;2024-01-30T10:16:31;25.37;;;14.97;;
62693;SDS011;48759;52.544;13.418;2024-01-30T10:19:00;16.13;;;10.90;;
62693;SDS011;48759;52.544;13.418;2024-01-30T10:21:30;20.53;;;14.00;;
62693;SDS011;48759;52.544;13.418;2024-01-30T10:24:05;26.07;;;14.53;;
62693;SDS011;48759;52.544;13.418;2024-01-30T10:26:38;23.93;;;11.27;;
62693;SDS011;48759;52.544;13.418;2024-01-30T10:29:05;13.43;;;9.77;;
62693;SDS011;48759;52.544;13.418;2024-01-30T10:31:35;17.90;;;11.50;;
62693;SDS011;48759;52.544;13.418;2024-01-30T10:34:05;20.13;;;13.23;;
62693;SDS011;48759;52.544;13.418;2024-01-30T10:36:37;22.30;;;16.07;;
62693;SDS011;48759;52.544;13.418;2024-01-30T10:39:06;26.23;;;14.60;;
62693;SDS011;48759;52.544;13.418;2024-01-30T10:41:35;13.93;;;11.07;;
62693;SDS011;48759;52.544;13.418;2024-01-30T10:44:09;10.47;;;8.60;;
62693;SDS011;48759;52.544;13.418;2024-01-30T10:46:42;11.20;;;8.70;;
62693;SDS011;48759;52.544;13.418;2024-01-30T10:49:14;17.63;;;10.50;;
62693;SDS011;48759;52.544;13.418;2024-01-30T10:51:42;18.40;;;10.37;;
62693;SDS011;48759;52.544;13.418;2024-01-30T10:54:10;16.70;;;10.33;;
62693;SDS011;48759;52.544;13.418;2024-01-30T10:56:52;18.50;;;10.30;;
62693;SDS011;48759;52.544;13.418;2024-01-30T10:59:22;15.10;;;9.00;;
62693;SDS011;48759;52.544;13.418;2024-01-30T11:01:49;14.90;;;9.53;;
62693;SDS011;48759;52.544;13.418;2024-01-30T11:04:23;12.33;;;9.17;;
62693;SDS011;48759;52.544;13.418;2024-01-30T11:06:51;15.23;;;9.30;;
62693;SDS011;48759;52.544;13.418;2024-01-30T11:09:19;11.07;;;9.10;;
62693;SDS011;48759;52.544;13.418;2024-01-30T11:11:48;11.90;;;8.80;;
62693;SDS011;48759;52.544;13.418;2024-01-30T11:14:14;12.40;;;9.00;;
62693;SDS011;48759;52.544;13.418;2024-01-30T11:16:42;11.70;;;8.30;;
62693;SDS011;48759;52.544;13.418;2024-01-30T11:19:11;8.87;;;7.20;;
62693;SDS011;48759;52.544;13.418;2024-01-30T11:21:46;11.93;;;9.33;;
62693;SDS011;48759;52.544;13.418;2024-01-30T11:24:18;15.00;;;11.17;;
62693;SDS011;48759;52.544;13.418;2024-01-30T11:26:48;18.40;;;10.13;;
62693;SDS011;48759;52.544;13.418;2024-01-30T11:29:16;14.97;;;10.27;;
62693;SDS011;48759;52.544;13.418;2024-01-30T11:31:53;13.17;;;9.20;;
62693;SDS011;48759;52.544;13.418;2024-01-30T11:34:20;12.60;;;8.27;;
62693;SDS011;48759;52.544;13.418;2024-01-30T11:36:55;17.03;;;9.00;;
62693;SDS011;48759;52.544;13.418;2024-01-30T11:39:25;14.73;;;9.40;;
62693;SDS011;48759;52.544;13.418;2024-01-30T11:41:54;17.53;;;11.37;;
62693;SDS011;48759;52.544;13.418;2024-01-30T11:44:22;11.87;;;8.87;;
62693;SDS011;48759;52.544;13.418;2024-01-30T11:46:52;13.70;;;9.70;;
62693;SDS011;48759;52.544;13.418;2024-01-30T11:49:19;24.53;;;13.70;;
62693;SDS011;48759;52.544;13.418;2024-01-30T11:51:49;25.70;;;12.73;;
62693;SDS011;48759;52.544;13.418;2024-01-30T11:54:17;19.03;;;12.43;;
62693;SDS011;48759;52.544;13.418;2024-01-30T11:56:45;18.57;;;11.13;;
62693;SDS011;48759;52.544;13.418;2024-01-30T11:59:13;13.43;;;9.00;;
62693;SDS011;48759;52.544;13.418;2024-01-30T12:01:47;15.90;;;10.13;;
62693;SDS011;48759;52.544;13.418;2024-01-30T12:04:17;17.90;;;9.17;;
62693;SDS011;48759;52.544;13.418;2024-01-30T12:06:46;15.03;;;9.50;;
62693;SDS011;48759;52.544;13.418;2024-01-30T12:09:18;14.63;;;9.60;;
62693;SDS011;48759;52.544;13.418;2024-01-30T12:11:45;17.93;;;10.17;;
62693;SDS011;48759;52.544;13.418;2024-01-30T12:14:13;14.53;;;9.83;;
62693;SDS011;48759;52.544;13.418;2024-01-30T12:16:40;13.93;;;9.43;;
62693;SDS011;48759;52.544;13.418;2024-01-30T12:19:08;17.27;;;11.53;;
62693;SDS011;48759;52.544;13.418;2024-01-30T12:21:45;15.23;;;10.97;;
62693;SDS011;48759;52.544;13.418;2024-01-30T12:24:21;16.00;;;10.40;;
62693;SDS011;48759;52.544;13.418;2024-01-30T12:26:48;16.73;;;9.57;;
62693;SDS011;48759;52.544;13.418;2024-01-30T12:29:15;21.80;;;11.30;;
62693;SDS011;48759;52.544;13.418;2024-01-30T12:32:05;14.37;;;10.17;;
62693;SDS011;48759;52.544;13.418;2024-01-30T12:34:32;16.83;;;10.13;;
62693;SDS011;48759;52.544;13.418;2024-01-30T12:37:00;14.60;;;10.17;;
62693;SDS011;48759;52.544;13.418;2024-01-30T12:39:30;15.60;;;9.43;;
62693;SDS011;48759;52.544;13.418;2024-01-30T12:41:58;15.80;;;9.40;;
62693;SDS011;48759;52.544;13.418;2024-01-30T12:44:28;13.87;;;9.60;;
62693;SDS011;48759;52.544;13.418;2024-01-30T12:46:58;16.50;;;11.13;;
62693;SDS011;48759;52.544;13.418;2024-01-30T12:49:26;13.67;;;9.40;;
62693;SDS011;48759;52.544;13.418;2024-01-30T12:52:06;19.27;;;11.83;;
62693;SDS011;48759;52.544;13.418;2024-01-30T12:54:37;20.07;;;12.83;;
62693;SDS011;48759;52.544;13.418;2024-01-30T12:57:09;17.70;;;11.37;;
62693;SDS011;48759;52.544;13.418;2024-01-30T12:59:36;18.43;;;10.90;;
62693;SDS011;48759;52.544;13.418;2024-01-30T13:02:04;12.43;;;10.33;;
62693;SDS011;48759;52.544;13.418;2024-01-30T13:04:31;25.80;;;13.63;;
62693;SDS011;48759;52.544;13.418;2024-01-30T13:07:02;26.20;;;14.93;;
62693;SDS011;48759;52.544;13.418;2024-01-30T13:09:29;33.63;;;18.90;;
62693;SDS011;48759;52.544;13.418;2024-01-30T13:11:58;18.77;;;9.90;;
62693;SDS011;48759;52.544;13.418;2024-01-30T13:14:25;20.63;;;12.80;;
62693;SDS011;48759;52.544;13.418;2024-01-30T13:16:53;14.73;;;10.73;;
62693;SDS011;48759;52.544;13.418;2024-01-30T13:19:22;15.33;;;11.17;;
62693;SDS011;48759;52.544;13.418;2024-01-30T13:21:51;16.83;;;11.77;;
62693;SDS011;48759;52.544;13.418;2024-01-30T13:24:26;15.67;;;10.67;;
62693;SDS011;48759;52.544;13.418;2024-01-30T13:26:58;15.13;;;11.10;;
62693;SDS011;48759;52.544;13.418;2024-01-30T13:29:31;17.60;;;10.70;;
62693;SDS011;48759;52.544;13.418;2024-01-30T13:32:14;15.93;;;9.00;;
62693;SDS011;48759;52.544;13.418;2024-01-30T13:35:02;17.60;;;11.00;;
62693;SDS011;48759;52.544;13.418;2024-01-30T13:37:29;14.30;;;10.13;;
62693;SDS011;48759;52.544;13.418;2024-01-30T13:40:10;12.93;;;9.27;;
62693;SDS011;48759;52.544;13.418;2024-01-30T13:57:27;15.63;;;9.90;;
62693;SDS011;48759;52.544;13.418;2024-01-30T14:03:13;14.10;;;8.60;;
62693;SDS011;48759;52.544;13.418;2024-01-30T14:06:06;17.53;;;10.00;;
62693;SDS011;48759;52.544;13.418;2024-01-30T14:09:08;15.90;;;11.90;;
62693;SDS011;48759;52.544;13.418;2024-01-30T14:11:41;16.10;;;10.90;;
62693;SDS011;48759;52.544;13.418;2024-01-30T14:14:20;13.90;;;9.03;;
62693;SDS011;48759;52.544;13.418;2024-01-30T14:16:55;12.70;;;8.80;;
62693;SDS011;48759;52.544;13.418;2024-01-30T14:19:35;14.20;;;8.63;;
62693;SDS011;48759;52.544;13.418;2024-01-30T14:22:09;11.43;;;9.10;;
62693;SDS011;48759;52.544;13.418;2024-01-30T14:24:49;13.83;;;9.73;;
62693;SDS011;48759;52.544;13.418;2024-01-30T14:27:15;13.60;;;9.70;;
62693;SDS011;48759;52.544;13.418;2024-01-30T14:30:14;18.40;;;9.50;;
62693;SDS011;48759;52.544;13.418;2024-01-30T14:32:54;15.43;;;9.90;;
62693;SDS011;48759;52.544;13.418;2024-01-30T14:35:32;12.63;;;9.53;;
62693;SDS011;48759;52.544;13.418;2024-01-30T14:38:00;14.23;;;9.30;;
62693;SDS011;48759;52.544;13.418;2024-01-30T14:40:34;12.83;;;9.20;;
62693;SDS011;48759;52.544;13.418;2024-01-30T14:46:18;13.90;;;8.83;;
62693;SDS011;48759;52.544;13.418;2024-01-30T14:49:01;13.57;;;9.13;;
62693;SDS011;48759;52.544;13.418;2024-01-30T14:51:38;12.00;;;9.17;;
62693;SDS011;48759;52.544;13.418;2024-01-30T14:54:07;14.47;;;8.80;;
62693;SDS011;48759;52.544;13.418;2024-01-30T14:56:40;12.90;;;9.37;;
62693;SDS011;48759;52.544;13.418;2024-01-30T14:59:31;15.03;;;9.63;;
62693;SDS011;48759;52.544;13.418;2024-01-30T15:02:02;14.67;;;8.80;;
62693;SDS011;48759;52.544;13.418;2024-01-30T15:04:35;14.20;;;9.00;;
62693;SDS011;48759;52.544;13.418;2024-01-30T15:07:12;14.70;;;8.90;;
62693;SDS011;48759;52.544;13.418;2024-01-30T15:09:40;16.63;;;9.37;;
62693;SDS011;48759;52.544;13.418;2024-01-30T15:12:18;11.83;;;8.53;;